Time;durP1;ratioP1;P1;durP2;ratioP2;P2;SDS_P1;SDS_P2;PMS_P1;PMS_P2;Temp;Humidity;BMP_temperature;BMP_pressure;BME280_temperature;BME280_humidity;BME280_pressure;Samples;Min_cycle;Max_cycle;Signal;HPM_P1;HPM_P2
2021/09/29 00:01:02;;;;;;;6.55;3.65;;;12.80;99.90;;;;;;5013140;28;20120;-85
2021/09/29 00:03:27;;;;;;;7.97;3.90;;;12.80;99.90;;;;;;5012450;28;20038;-85
2021/09/29 00:05:53;;;;;;;6.45;3.20;;;12.80;99.90;;;;;;5008739;28;20663;-85
2021/09/29 00:08:18;;;;;;;6.95;3.38;;;12.80;99.90;;;;;;5010540;28;20498;-85
2021/09/29 00:10:45;;;;;;;10.98;3.67;;;12.80;99.90;;;;;;5029099;28;20034;-85
2021/09/29 00:13:11;;;;;;;10.30;4.20;;;12.80;99.90;;;;;;5014192;28;20037;-85
2021/09/29 00:15:37;;;;;;;7.38;3.63;;;12.90;99.90;;;;;;5012417;28;20021;-85
2021/09/29 00:18:02;;;;;;;8.90;4.15;;;12.90;99.90;;;;;;5011612;28;20037;-85
2021/09/29 00:20:28;;;;;;;8.52;4.35;;;12.90;99.90;;;;;;5012262;28;20433;-85
2021/09/29 00:22:54;;;;;;;8.25;3.65;;;12.90;99.90;;;;;;5012992;28;20560;-85
2021/09/29 00:25:19;;;;;;;5.97;3.78;;;12.90;99.90;;;;;;5010618;28;20033;-86
2021/09/29 00:27:45;;;;;;;10.00;3.92;;;12.90;99.90;;;;;;5013399;28;20406;-85
2021/09/29 00:30:12;;;;;;;12.43;4.18;;;12.90;99.90;;;;;;5011289;28;20026;-85
2021/09/29 00:32:41;;;;;;;8.07;3.60;;;12.90;99.90;;;;;;5010158;28;20575;-85
2021/09/29 00:35:08;;;;;;;9.93;4.25;;;12.90;99.90;;;;;;5010691;28;20054;-85
2021/09/29 00:37:34;;;;;;;6.63;3.90;;;12.90;99.90;;;;;;5011184;28;20112;-84
2021/09/29 00:40:00;;;;;;;10.88;3.90;;;12.90;99.90;;;;;;5026900;28;20434;-85
2021/09/29 00:42:25;;;;;;;8.18;3.70;;;12.90;99.90;;;;;;5013051;28;20494;-85
2021/09/29 00:44:51;;;;;;;7.28;4.05;;;13.00;99.90;;;;;;5011860;28;20046;-85
2021/09/29 00:47:17;;;;;;;8.23;4.20;;;13.00;99.90;;;;;;5009947;28;20037;-85
2021/09/29 00:49:43;;;;;;;10.73;4.32;;;13.00;99.90;;;;;;5028289;28;20026;-85
2021/09/29 00:52:09;;;;;;;8.32;4.28;;;12.90;99.90;;;;;;5010788;28;20037;-85
2021/09/29 00:54:34;;;;;;;8.75;3.75;;;12.90;99.90;;;;;;5011740;28;20053;-85
2021/09/29 00:57:00;;;;;;;8.77;5.18;;;12.90;99.90;;;;;;5004705;28;20475;-85
2021/09/29 00:59:26;;;;;;;8.43;4.15;;;12.80;99.90;;;;;;5008423;28;20021;-85
2021/09/29 01:01:53;;;;;;;6.75;4.15;;;12.80;99.90;;;;;;5005246;28;20022;-86
2021/09/29 01:04:21;;;;;;;7.28;3.67;;;12.70;99.90;;;;;;5011483;28;20121;-85
2021/09/29 01:06:57;;;;;;;9.07;4.75;;;12.70;99.90;;;;;;5010657;28;20433;-86
2021/09/29 01:09:43;;;;;;;12.32;4.70;;;12.70;99.90;;;;;;5011172;28;20092;-85
2021/09/29 01:12:32;;;;;;;11.98;5.03;;;12.60;99.90;;;;;;5012102;28;20034;-85
2021/09/29 01:15:13;;;;;;;9.52;4.60;;;12.50;99.90;;;;;;5010739;28;20026;-85
2021/09/29 01:17:44;;;;;;;12.85;5.15;;;12.50;99.90;;;;;;5005561;28;20018;-85
2021/09/29 01:20:47;;;;;;;7.75;4.32;;;12.40;99.90;;;;;;5015980;28;20062;-84
2021/09/29 01:23:47;;;;;;;7.78;4.30;;;12.40;99.90;;;;;;4987876;28;20073;-85
2021/09/29 01:26:18;;;;;;;9.20;4.28;;;12.40;99.90;;;;;;5008839;28;20026;-85
2021/09/29 01:28:55;;;;;;;6.95;4.00;;;12.30;99.90;;;;;;5003797;28;20038;-85
2021/09/29 01:31:23;;;;;;;8.48;5.40;;;12.20;99.90;;;;;;5012282;28;20026;-85
2021/09/29 01:33:50;;;;;;;11.55;5.50;;;12.20;99.90;;;;;;5022048;28;20022;-85
2021/09/29 01:36:18;;;;;;;8.05;4.82;;;12.20;99.90;;;;;;5010104;28;20049;-85
2021/09/29 01:38:47;;;;;;;13.20;4.80;;;12.20;99.90;;;;;;5011831;28;20018;-85
2021/09/29 01:41:13;;;;;;;8.35;4.65;;;12.10;99.90;;;;;;5011258;28;20080;-85
2021/09/29 01:43:38;;;;;;;10.85;5.00;;;12.10;99.90;;;;;;5012369;28;20030;-85
2021/09/29 01:46:06;;;;;;;11.40;6.25;;;12.10;99.90;;;;;;5010032;28;20022;-85
2021/09/29 01:48:34;;;;;;;9.55;4.63;;;12.10;99.90;;;;;;5011414;28;20116;-85
2021/09/29 01:51:01;;;;;;;8.30;4.75;;;12.10;99.90;;;;;;5012268;28;20050;-84
2021/09/29 01:53:32;;;;;;;11.18;5.15;;;12.10;99.90;;;;;;5011755;28;20037;-85
2021/09/29 01:55:58;;;;;;;9.25;4.93;;;12.10;99.90;;;;;;5010476;28;20028;-85
2021/09/29 01:58:23;;;;;;;10.63;5.00;;;12.10;99.90;;;;;;5010866;28;20025;-85
2021/09/29 02:00:49;;;;;;;9.55;4.85;;;12.10;99.90;;;;;;5011301;28;20578;-85
2021/09/29 02:03:20;;;;;;;10.10;5.05;;;12.10;99.90;;;;;;5011377;28;20386;-85
2021/09/29 02:05:50;;;;;;;9.43;4.82;;;12.10;99.90;;;;;;5011347;28;20025;-85
2021/09/29 02:08:16;;;;;;;11.88;5.32;;;12.10;99.90;;;;;;5010740;28;20037;-85
2021/09/29 02:10:42;;;;;;;9.40;4.55;;;12.00;99.90;;;;;;5007198;28;20050;-84
2021/09/29 02:13:07;;;;;;;9.52;5.38;;;12.00;99.90;;;;;;4998148;28;20030;-85
2021/09/29 02:15:33;;;;;;;12.27;5.03;;;12.00;99.90;;;;;;5010803;28;20026;-85
2021/09/29 02:17:58;;;;;;;7.70;5.00;;;12.00;99.90;;;;;;5011498;28;20465;-85
2021/09/29 02:20:24;;;;;;;8.65;5.32;;;12.00;99.90;;;;;;5009797;28;20145;-85
2021/09/29 02:22:50;;;;;;;7.47;4.15;;;12.00;99.90;;;;;;5010558;28;20116;-85
2021/09/29 02:25:16;;;;;;;9.95;5.78;;;11.90;99.90;;;;;;5010262;28;20076;-84
2021/09/29 02:27:41;;;;;;;10.05;5.03;;;11.90;99.90;;;;;;5012424;28;20033;-85
2021/09/29 02:30:09;;;;;;;9.70;5.22;;;11.90;99.90;;;;;;5013372;28;20596;-85
2021/09/29 02:32:38;;;;;;;8.63;5.47;;;11.90;99.90;;;;;;5015253;28;20069;-84
2021/09/29 02:35:06;;;;;;;7.70;5.43;;;11.90;99.90;;;;;;5013872;28;20115;-85
2021/09/29 02:37:31;;;;;;;10.65;5.65;;;11.90;99.90;;;;;;5011107;28;20070;-85
2021/09/29 02:39:57;;;;;;;8.80;5.13;;;11.90;99.90;;;;;;5014840;28;20104;-85
2021/09/29 02:42:22;;;;;;;9.95;5.15;;;11.90;99.90;;;;;;5014199;28;20084;-85
2021/09/29 02:44:48;;;;;;;10.25;5.43;;;11.90;99.90;;;;;;5014493;28;20436;-85
2021/09/29 02:47:14;;;;;;;9.80;5.90;;;11.90;99.90;;;;;;5013231;28;20041;-85
2021/09/29 02:49:39;;;;;;;8.30;4.72;;;11.90;99.90;;;;;;5014502;28;20113;-85
2021/09/29 02:52:05;;;;;;;13.50;5.75;;;11.90;99.90;;;;;;5013563;28;20026;-85
2021/09/29 02:54:30;;;;;;;10.63;6.10;;;11.90;99.90;;;;;;4999878;28;20031;-85
2021/09/29 02:56:56;;;;;;;10.63;5.70;;;12.00;99.90;;;;;;5014169;28;20065;-84
2021/09/29 02:59:21;;;;;;;9.15;5.03;;;12.00;99.90;;;;;;5015076;28;20075;-85
2021/09/29 03:01:47;;;;;;;8.35;4.80;;;12.10;99.90;;;;;;5014290;28;20109;-85
2021/09/29 03:04:12;;;;;;;10.88;5.93;;;12.10;99.90;;;;;;5014321;28;20032;-85
2021/09/29 03:06:38;;;;;;;13.90;5.47;;;12.10;99.90;;;;;;5013548;28;20061;-85
2021/09/29 03:09:04;;;;;;;9.27;5.90;;;12.10;99.90;;;;;;5013760;28;20042;-85
2021/09/29 03:11:29;;;;;;;9.10;4.80;;;12.20;99.90;;;;;;5013527;28;20025;-85
2021/09/29 03:13:55;;;;;;;9.60;5.13;;;12.20;99.90;;;;;;5013938;28;20041;-85
2021/09/29 03:16:20;;;;;;;8.57;4.95;;;12.20;99.90;;;;;;5013845;28;20034;-84
2021/09/29 03:18:49;;;;;;;11.82;5.70;;;12.30;99.90;;;;;;5014126;28;20029;-85
2021/09/29 03:21:16;;;;;;;9.60;4.85;;;12.30;99.90;;;;;;5013443;28;20022;-85
2021/09/29 03:23:42;;;;;;;20.50;5.55;;;12.30;99.90;;;;;;5013632;28;20033;-85
2021/09/29 03:26:08;;;;;;;8.63;5.03;;;12.30;99.90;;;;;;5013027;28;20076;-85
2021/09/29 03:28:33;;;;;;;7.78;4.95;;;12.40;99.90;;;;;;5014467;28;20050;-85
2021/09/29 03:30:59;;;;;;;10.85;5.40;;;12.40;99.90;;;;;;5014660;28;20029;-85
2021/09/29 03:33:25;;;;;;;8.68;4.78;;;12.40;99.90;;;;;;5013753;28;20482;-85
2021/09/29 03:35:50;;;;;;;10.35;4.95;;;12.50;99.90;;;;;;5013319;28;20121;-85
2021/09/29 03:38:16;;;;;;;10.00;5.60;;;12.50;99.90;;;;;;5013557;28;20021;-85
2021/09/29 03:40:42;;;;;;;11.48;5.25;;;12.50;99.90;;;;;;5011974;28;20474;-85
2021/09/29 03:43:07;;;;;;;7.88;5.28;;;12.60;99.90;;;;;;5014173;28;20022;-85
2021/09/29 03:45:33;;;;;;;11.85;5.30;;;12.60;99.90;;;;;;5014816;28;20030;-85
2021/09/29 03:47:59;;;;;;;8.85;4.90;;;12.70;99.90;;;;;;5013689;28;20042;-85
2021/09/29 03:50:24;;;;;;;11.27;5.18;;;12.70;99.90;;;;;;5013629;28;20030;-85
2021/09/29 03:52:50;;;;;;;8.25;4.90;;;12.70;99.90;;;;;;5012876;28;20033;-85
2021/09/29 03:55:16;;;;;;;8.57;4.35;;;12.70;99.90;;;;;;5012124;28;20088;-85
2021/09/29 03:57:42;;;;;;;10.98;4.70;;;12.80;99.90;;;;;;5013694;28;20038;-85
2021/09/29 04:00:10;;;;;;;9.50;4.82;;;12.70;99.90;;;;;;5012735;28;20022;-85
2021/09/29 04:02:37;;;;;;;7.32;4.65;;;12.80;99.90;;;;;;5013131;28;20026;-85
2021/09/29 04:05:03;;;;;;;9.07;4.32;;;12.80;99.90;;;;;;5009629;28;20426;-85
2021/09/29 04:07:29;;;;;;;11.50;4.25;;;12.80;99.90;;;;;;5007921;28;20030;-85
2021/09/29 04:09:54;;;;;;;9.82;4.40;;;12.80;99.90;;;;;;5012350;28;20435;-85
2021/09/29 04:12:21;;;;;;;8.82;4.68;;;12.80;99.90;;;;;;5012339;28;20032;-85
2021/09/29 04:14:51;;;;;;;9.93;4.32;;;12.80;99.90;;;;;;5012819;28;20999;-85
2021/09/29 04:17:17;;;;;;;8.98;3.80;;;12.80;99.90;;;;;;5014065;28;20018;-85
2021/09/29 04:19:43;;;;;;;8.43;4.05;;;12.80;99.90;;;;;;5014146;28;20022;-85
2021/09/29 04:22:10;;;;;;;7.40;4.18;;;12.80;99.90;;;;;;5012206;28;20041;-85
2021/09/29 04:24:40;;;;;;;6.70;3.53;;;12.80;99.90;;;;;;5011824;28;20088;-85
2021/09/29 04:27:08;;;;;;;6.10;3.17;;;12.90;99.90;;;;;;5012421;28;20061;-85
2021/09/29 04:29:34;;;;;;;12.55;3.85;;;12.90;99.90;;;;;;5004734;28;20064;-85
2021/09/29 04:32:00;;;;;;;8.32;3.92;;;12.90;99.90;;;;;;5010444;28;20390;-85
2021/09/29 04:34:26;;;;;;;8.40;2.67;;;12.90;99.90;;;;;;5008209;28;20041;-85
2021/09/29 04:36:51;;;;;;;5.10;2.92;;;12.90;99.90;;;;;;5012073;28;20078;-84
2021/09/29 04:39:17;;;;;;;7.70;2.90;;;12.90;99.90;;;;;;5011297;28;20072;-85
2021/09/29 04:41:43;;;;;;;8.27;2.25;;;12.90;99.90;;;;;;5011747;28;20034;-85
2021/09/29 04:44:08;;;;;;;9.25;2.75;;;13.00;99.90;;;;;;4995926;28;20420;-84
2021/09/29 04:46:34;;;;;;;6.93;2.55;;;13.00;99.90;;;;;;5009554;28;20019;-85
2021/09/29 04:48:59;;;;;;;6.35;2.55;;;13.00;99.90;;;;;;4999958;28;20442;-83
2021/09/29 04:51:25;;;;;;;6.93;1.80;;;13.00;99.90;;;;;;5011930;28;20033;-85
2021/09/29 04:53:51;;;;;;;6.47;2.70;;;13.00;99.90;;;;;;5011876;28;20025;-85
2021/09/29 04:56:16;;;;;;;6.85;2.60;;;13.00;99.90;;;;;;5010614;28;20036;-85
2021/09/29 04:58:43;;;;;;;5.35;2.55;;;13.00;99.90;;;;;;5009241;28;20029;-86
2021/09/29 05:01:10;;;;;;;6.95;2.22;;;13.00;99.90;;;;;;5010057;28;20026;-85
2021/09/29 05:03:36;;;;;;;10.05;3.10;;;12.90;99.90;;;;;;5010657;28;20029;-85
2021/09/29 05:06:02;;;;;;;5.30;2.00;;;12.90;99.90;;;;;;5011793;28;20030;-85
2021/09/29 05:08:30;;;;;;;6.15;2.65;;;12.90;99.90;;;;;;5011156;28;20065;-85
2021/09/29 05:11:02;;;;;;;9.75;3.38;;;12.90;99.90;;;;;;5011850;28;20180;-85
2021/09/29 05:13:31;;;;;;;4.72;2.45;;;12.80;99.90;;;;;;5026833;28;20091;-86
2021/09/29 05:16:01;;;;;;;7.68;2.67;;;12.80;99.90;;;;;;5011576;28;20056;-86
2021/09/29 05:18:27;;;;;;;6.30;2.88;;;12.80;99.90;;;;;;5011084;28;20041;-86
2021/09/29 05:20:53;;;;;;;5.15;2.10;;;12.80;99.90;;;;;;5011884;28;20095;-86
2021/09/29 05:23:19;;;;;;;8.23;2.58;;;12.70;99.90;;;;;;5010249;28;20478;-86
2021/09/29 05:25:45;;;;;;;7.72;2.53;;;12.70;99.90;;;;;;5007208;28;20389;-86
2021/09/29 05:28:15;;;;;;;7.57;2.95;;;12.70;99.90;;;;;;5006976;28;20116;-86
2021/09/29 05:30:42;;;;;;;6.97;2.20;;;12.70;99.90;;;;;;5009873;28;20030;-86
2021/09/29 05:33:07;;;;;;;6.00;2.90;;;12.60;99.90;;;;;;5005033;28;20076;-85
2021/09/29 05:35:33;;;;;;;8.45;2.60;;;12.70;99.90;;;;;;5004431;28;20046;-85
2021/09/29 05:37:59;;;;;;;6.00;2.78;;;12.60;99.90;;;;;;5010987;28;20501;-85
2021/09/29 05:40:24;;;;;;;5.07;2.60;;;12.60;99.90;;;;;;5013336;28;20033;-85
2021/09/29 05:42:50;;;;;;;6.63;2.20;;;12.60;99.90;;;;;;5012303;28;20030;-88
2021/09/29 05:45:16;;;;;;;7.85;2.40;;;12.60;99.90;;;;;;5012780;28;20025;-84
2021/09/29 05:47:41;;;;;;;7.82;2.38;;;12.60;99.90;;;;;;5009388;28;20264;-86
2021/09/29 05:50:08;;;;;;;10.20;2.75;;;12.60;99.90;;;;;;5010559;28;20109;-86
2021/09/29 05:52:33;;;;;;;5.10;2.60;;;12.60;99.90;;;;;;5005078;28;20372;-87
2021/09/29 05:54:59;;;;;;;6.90;1.88;;;12.60;99.90;;;;;;5013610;28;20030;-85
2021/09/29 05:57:25;;;;;;;8.70;1.90;;;12.60;99.90;;;;;;5007951;28;20065;-85
2021/09/29 05:59:51;;;;;;;11.10;2.78;;;12.60;99.90;;;;;;5007420;28;20029;-85
2021/09/29 06:02:17;;;;;;;11.02;3.30;;;12.60;99.90;;;;;;5002879;28;20085;-85
2021/09/29 06:04:43;;;;;;;5.88;2.47;;;12.60;99.90;;;;;;5011118;28;20018;-84
2021/09/29 06:07:10;;;;;;;6.55;2.63;;;12.60;99.90;;;;;;5019477;28;20080;-85
2021/09/29 06:09:38;;;;;;;5.22;2.22;;;12.60;99.90;;;;;;5013391;28;20026;-85
2021/09/29 06:12:04;;;;;;;5.03;1.90;;;12.60;99.90;;;;;;5010990;28;20030;-87
2021/09/29 06:14:30;;;;;;;5.75;2.42;;;12.60;99.90;;;;;;5013217;28;20029;-87
2021/09/29 06:17:10;;;;;;;7.35;2.35;;;12.70;99.90;;;;;;5015038;28;20025;-88
2021/09/29 06:19:36;;;;;;;4.65;2.25;;;12.60;99.90;;;;;;5015685;28;20049;-87
2021/09/29 06:22:04;;;;;;;5.97;2.42;;;12.60;99.90;;;;;;5016791;28;20455;-86
2021/09/29 06:24:30;;;;;;;6.47;1.92;;;12.50;99.90;;;;;;5016412;28;20048;-86
2021/09/29 06:26:56;;;;;;;6.88;1.73;;;12.50;99.90;;;;;;5016706;28;20025;-87
2021/09/29 06:29:22;;;;;;;7.38;1.88;;;12.50;99.90;;;;;;5014540;28;20026;-86
2021/09/29 06:31:51;;;;;;;7.53;2.20;;;12.50;99.90;;;;;;5015713;28;20164;-86
2021/09/29 06:34:17;;;;;;;6.28;2.05;;;12.50;99.90;;;;;;5016634;28;20548;-86
2021/09/29 06:36:43;;;;;;;4.28;1.85;;;12.50;99.90;;;;;;5033172;28;20046;-87
2021/09/29 06:39:09;;;;;;;5.00;2.00;;;12.60;99.90;;;;;;5029036;28;20037;-87
2021/09/29 06:41:34;;;;;;;7.47;1.83;;;12.60;99.90;;;;;;5017053;28;20034;-86
2021/09/29 06:44:00;;;;;;;4.07;1.42;;;12.70;99.90;;;;;;5017578;28;20094;-86
2021/09/29 06:46:26;;;;;;;7.25;2.72;;;12.70;99.90;;;;;;5014398;28;20034;-86
2021/09/29 06:48:51;;;;;;;6.60;1.60;;;12.80;99.90;;;;;;5015435;28;20520;-85
2021/09/29 06:51:16;;;;;;;9.88;2.65;;;12.80;99.90;;;;;;5015447;28;20038;-85
2021/09/29 06:53:42;;;;;;;4.25;1.77;;;12.80;99.90;;;;;;5014115;28;20032;-88
2021/09/29 06:56:08;;;;;;;4.60;2.13;;;12.90;99.90;;;;;;5010687;28;20026;-86
2021/09/29 06:58:34;;;;;;;6.47;2.10;;;12.90;99.90;;;;;;5023788;28;20469;-86
2021/09/29 07:01:00;;;;;;;7.30;2.28;;;12.90;99.90;;;;;;5013359;28;20033;-87
2021/09/29 07:03:25;;;;;;;6.28;2.50;;;12.90;99.90;;;;;;5013179;28;20026;-87
2021/09/29 07:05:51;;;;;;;6.85;2.10;;;13.00;99.90;;;;;;5014121;28;20423;-86
2021/09/29 07:08:17;;;;;;;3.95;1.60;;;13.00;99.90;;;;;;5014854;28;20568;-87
2021/09/29 07:10:43;;;;;;;6.80;2.25;;;12.90;99.90;;;;;;5014662;28;20026;-87
2021/09/29 07:13:10;;;;;;;8.20;1.60;;;12.90;99.90;;;;;;5014309;28;20030;-86
2021/09/29 07:15:35;;;;;;;7.32;1.70;;;12.90;99.90;;;;;;5011945;28;20030;-86
2021/09/29 07:18:01;;;;;;;4.70;1.95;;;12.90;99.90;;;;;;5014281;28;20065;-87
2021/09/29 07:20:27;;;;;;;8.52;2.08;;;12.90;99.90;;;;;;5013420;28;20113;-86
2021/09/29 07:22:54;;;;;;;4.88;1.70;;;12.90;99.90;;;;;;5014405;28;20052;-86
2021/09/29 07:25:20;;;;;;;4.35;1.45;;;12.90;99.90;;;;;;5010193;28;20072;-86
2021/09/29 07:27:45;;;;;;;4.97;1.80;;;12.90;99.90;;;;;;5014386;28;20057;-87
2021/09/29 07:30:11;;;;;;;5.97;2.15;;;12.90;99.90;;;;;;5006145;28;20030;-86
2021/09/29 07:32:37;;;;;;;5.55;2.05;;;12.90;99.90;;;;;;5012112;28;20075;-87
2021/09/29 07:35:02;;;;;;;6.47;2.05;;;12.90;99.90;;;;;;5013835;28;20075;-86
2021/09/29 07:37:28;;;;;;;6.60;1.95;;;12.90;99.90;;;;;;5011844;28;20029;-87
2021/09/29 07:39:54;;;;;;;4.65;2.03;;;12.90;99.90;;;;;;5006812;28;20032;-88
2021/09/29 07:42:19;;;;;;;7.25;1.98;;;12.90;99.90;;;;;;5019318;28;20030;-86
2021/09/29 07:44:45;;;;;;;4.78;2.15;;;12.90;99.90;;;;;;5019923;28;20127;-87
2021/09/29 07:47:10;;;;;;;5.45;2.10;;;12.90;99.90;;;;;;5014278;28;20092;-87
2021/09/29 07:49:36;;;;;;;6.05;2.70;;;12.90;99.90;;;;;;5023301;28;20087;-87
2021/09/29 07:52:02;;;;;;;9.10;2.55;;;12.90;99.90;;;;;;5013039;28;20038;-87
2021/09/29 07:54:29;;;;;;;5.07;2.45;;;12.90;99.90;;;;;;5010235;28;20113;-86
2021/09/29 07:56:55;;;;;;;4.05;2.15;;;12.90;99.90;;;;;;5014126;28;20064;-88
2021/09/29 07:59:22;;;;;;;8.70;2.47;;;13.00;99.90;;;;;;5011959;28;20022;-87
2021/09/29 08:01:49;;;;;;;8.52;2.60;;;13.00;99.90;;;;;;5013210;28;20041;-87
2021/09/29 08:04:18;;;;;;;5.47;2.42;;;13.10;99.90;;;;;;5013007;28;20443;-86
2021/09/29 08:06:43;;;;;;;4.63;2.45;;;13.10;99.90;;;;;;5014698;28;20471;-87
2021/09/29 08:09:13;;;;;;;6.93;2.70;;;13.20;99.90;;;;;;5014443;28;20128;-88
2021/09/29 08:11:39;;;;;;;7.25;2.38;;;13.20;99.90;;;;;;5014489;28;20030;-86
2021/09/29 08:14:05;;;;;;;4.50;2.58;;;13.20;99.90;;;;;;5013192;28;20120;-86
2021/09/29 08:16:30;;;;;;;4.88;2.35;;;13.20;99.90;;;;;;5027840;28;20019;-86
2021/09/29 08:18:56;;;;;;;6.22;2.72;;;13.30;99.90;;;;;;5010194;28;20386;-85
2021/09/29 08:21:28;;;;;;;7.30;3.17;;;13.30;99.90;;;;;;4996722;28;20054;-86
2021/09/29 08:24:00;;;;;;;4.90;3.38;;;13.30;99.90;;;;;;5025268;28;20079;-86
2021/09/29 08:32:03;;;;;;;6.53;3.90;;;13.40;99.90;;;;;;5013224;28;20021;-87
2021/09/29 08:34:45;;;;;;;6.68;4.28;;;13.40;99.90;;;;;;5009103;28;20037;-86
2021/09/29 08:39:44;;;;;;;9.52;4.70;;;13.50;99.90;;;;;;5015620;23;20053;-76
2021/09/29 08:42:20;;;;;;;7.20;3.85;;;13.50;99.90;;;;;;5013002;28;20040;-76
2021/09/29 08:44:57;;;;;;;4.32;3.92;;;13.60;99.90;;;;;;5006829;28;20041;-76
2021/09/29 08:55:40;;;;;;;5.38;4.45;;;13.60;99.90;;;;;;5010038;28;20026;-76
2021/09/29 09:17:11;;;;;;;2.53;1.15;;;13.40;99.90;;;;;;4992655;28;20030;-74
2021/09/29 09:19:36;;;;;;;4.40;1.45;;;13.30;99.90;;;;;;5004010;28;20028;-74
2021/09/29 09:22:05;;;;;;;3.53;1.08;;;13.20;99.90;;;;;;4999350;28;20038;-74
2021/09/29 09:24:34;;;;;;;3.05;1.10;;;13.10;99.90;;;;;;4991852;28;20018;-75
2021/09/29 09:27:08;;;;;;;2.20;1.00;;;13.00;99.90;;;;;;4987875;28;20039;-75
2021/09/29 09:29:45;;;;;;;1.90;1.25;;;12.90;99.90;;;;;;4983333;28;20069;-74
2021/09/29 09:32:13;;;;;;;3.65;1.58;;;12.80;99.90;;;;;;4984276;28;20031;-75
2021/09/29 09:34:39;;;;;;;4.05;1.38;;;12.70;99.90;;;;;;4985056;28;20057;-75
2021/09/29 09:37:16;;;;;;;2.50;1.48;;;12.70;99.90;;;;;;4987241;28;20100;-75
2021/09/29 09:39:43;;;;;;;2.75;1.80;;;12.70;99.90;;;;;;5006792;28;20084;-74
2021/09/29 09:42:10;;;;;;;2.42;2.00;;;12.70;99.90;;;;;;4993482;28;20073;-75
2021/09/29 09:44:38;;;;;;;3.17;2.30;;;12.70;99.90;;;;;;4991638;28;20114;-74
2021/09/29 09:47:10;;;;;;;3.78;2.33;;;12.70;99.90;;;;;;4996450;28;20109;-75
2021/09/29 09:49:51;;;;;;;;;;;12.70;99.90;;;;;;4988088;28;20050;-77
2021/09/29 09:52:40;;;;;;;4.28;1.88;;;12.70;99.90;;;;;;4991031;28;19916;-76
2021/09/29 09:55:13;;;;;;;3.60;1.65;;;12.70;99.90;;;;;;5001386;28;20355;-74
2021/09/29 09:57:40;;;;;;;2.78;1.63;;;12.60;99.90;;;;;;5000342;28;20026;-75
2021/09/29 10:00:11;;;;;;;1.83;1.20;;;12.60;99.90;;;;;;4996929;28;20022;-75
2021/09/29 10:02:43;;;;;;;2.47;1.42;;;12.60;99.90;;;;;;4988877;28;20029;-75
2021/09/29 10:05:11;;;;;;;2.88;1.40;;;12.60;99.90;;;;;;4995767;28;20065;-75
2021/09/29 10:07:37;;;;;;;3.03;1.40;;;12.50;99.90;;;;;;4972963;28;20038;-75
2021/09/29 10:10:13;;;;;;;3.95;1.85;;;12.50;99.90;;;;;;4976076;28;20030;-75
2021/09/29 10:13:36;;;;;;;3.15;1.80;;;12.60;99.90;;;;;;4990666;28;22491;-76
2021/09/29 10:23:59;;;;;;;6.50;1.77;;;12.50;99.90;;;;;;4982332;28;20101;-75
2021/09/29 10:26:25;;;;;;;4.53;1.83;;;12.40;99.90;;;;;;4991082;28;20037;-75
2021/09/29 10:29:03;;;;;;;2.92;0.90;;;12.40;99.90;;;;;;4990288;28;20049;-75
2021/09/29 10:31:58;;;;;;;1.63;0.63;;;12.40;99.90;;;;;;4991959;28;20026;-76
2021/09/29 10:34:29;;;;;;;2.80;0.50;;;12.40;99.90;;;;;;4975035;28;20467;-74
2021/09/29 10:42:26;;;;;;;1.55;0.77;;;12.20;99.90;;;;;;4987746;28;20034;-74
2021/09/29 10:45:28;;;;;;;5.38;0.80;;;12.10;99.90;;;;;;4974967;28;20506;-75
2021/09/29 11:07:29;;;;;;;1.65;0.70;;;12.20;99.90;;;;;;4994219;28;20026;-75
2021/09/29 11:10:20;;;;;;;2.60;0.80;;;12.20;99.90;;;;;;4996606;28;20038;-76
2021/09/29 11:29:44;;;;;;;3.72;0.90;;;12.10;99.90;;;;;;4993679;28;20165;-76
2021/09/29 11:32:35;;;;;;;1.35;0.70;;;12.10;99.90;;;;;;4979582;28;20446;-75
2021/09/29 11:35:16;;;;;;;2.30;0.80;;;12.10;99.90;;;;;;4993684;28;20036;-78
2021/09/29 12:10:26;;;;;;;6.22;1.45;;;14.00;99.90;;;;;;4990860;28;20038;-75
2021/09/29 12:12:53;;;;;;;4.85;1.55;;;14.30;99.90;;;;;;4994398;28;20026;-75
2021/09/29 12:15:19;;;;;;;3.42;1.30;;;14.50;99.90;;;;;;4993987;28;20031;-75
2021/09/29 12:17:49;;;;;;;4.88;1.63;;;14.60;99.90;;;;;;4993517;28;20034;-75
2021/09/29 12:22:53;;;;;;;2.10;0.85;;;14.70;99.90;;;;;;4993723;28;20110;-75
2021/09/29 12:28:33;;;;;;;4.10;0.80;;;14.80;99.90;;;;;;4993095;28;20038;-75
2021/09/29 12:31:21;;;;;;;5.28;1.05;;;14.70;99.90;;;;;;4978892;28;20069;-75
2021/09/29 12:36:29;;;;;;;2.67;0.43;;;14.20;99.90;;;;;;4992985;28;20437;-75
2021/09/29 12:38:55;;;;;;;2.75;0.45;;;14.00;99.90;;;;;;4992890;28;20055;-75
2021/09/29 12:41:23;;;;;;;4.13;0.50;;;13.80;99.90;;;;;;4992978;28;20069;-75
2021/09/29 12:43:59;;;;;;;4.65;0.40;;;13.60;99.90;;;;;;4992823;28;20064;-74
2021/09/29 12:46:24;;;;;;;3.88;0.40;;;13.40;99.90;;;;;;4992426;28;20084;-76
2021/09/29 12:48:50;;;;;;;1.38;0.40;;;13.30;99.90;;;;;;4992859;28;20490;-75
2021/09/29 12:51:15;;;;;;;1.63;0.30;;;13.30;99.90;;;;;;4992597;28;20026;-75
2021/09/29 12:53:51;;;;;;;3.22;0.22;;;13.30;99.90;;;;;;4991462;28;20080;-75
2021/09/29 12:56:17;;;;;;;1.30;0.30;;;13.30;99.90;;;;;;4990260;28;20021;-75
2021/09/29 12:58:44;;;;;;;3.25;0.30;;;13.40;99.90;;;;;;4994583;28;20096;-75
2021/09/29 13:01:09;;;;;;;1.35;0.20;;;13.60;99.90;;;;;;4993207;28;20390;-75
2021/09/29 13:03:35;;;;;;;2.67;0.30;;;13.70;99.90;;;;;;4980692;28;20030;-75
2021/09/29 13:06:00;;;;;;;3.35;0.30;;;13.90;99.90;;;;;;4976594;28;20551;-75
2021/09/29 13:08:27;;;;;;;2.33;0.38;;;14.00;99.90;;;;;;4974382;28;20423;-75
2021/09/29 13:10:53;;;;;;;4.15;0.30;;;14.20;99.60;;;;;;4973737;28;20019;-75
2021/09/29 13:13:20;;;;;;;3.75;0.50;;;14.30;99.50;;;;;;4988670;28;20034;-75
2021/09/29 13:15:49;;;;;;;2.03;0.50;;;14.50;99.50;;;;;;4992556;28;20379;-75
2021/09/29 13:18:21;;;;;;;3.75;0.30;;;14.70;99.20;;;;;;4993418;28;20058;-75
2021/09/29 13:20:54;;;;;;;3.35;0.52;;;14.90;99.40;;;;;;4994226;28;20034;-75
2021/09/29 13:23:29;;;;;;;4.10;0.40;;;15.30;99.20;;;;;;4974425;28;20100;-75
2021/09/29 13:36:51;;;;;;;1.98;0.20;;;15.70;95.40;;;;;;4993792;28;20175;-75
2021/09/29 13:39:18;;;;;;;4.97;0.28;;;15.50;94.50;;;;;;4992947;28;20504;-75
2021/09/29 13:41:46;;;;;;;2.15;0.20;;;15.40;94.50;;;;;;4987245;28;20511;-75
2021/09/29 13:44:13;;;;;;;1.83;0.10;;;15.20;93.60;;;;;;4991019;28;20432;-75
2021/09/29 13:46:39;;;;;;;1.38;0.20;;;15.10;94.10;;;;;;4992095;28;20026;-75
2021/09/29 13:49:07;;;;;;;2.85;0.20;;;15.10;94.30;;;;;;4989454;28;20550;-75
2021/09/29 13:51:33;;;;;;;3.83;1.00;;;15.20;93.80;;;;;;4989385;28;20023;-75
2021/09/29 13:54:06;;;;;;;2.78;0.20;;;15.20;93.60;;;;;;4977483;28;20097;-75
2021/09/29 13:56:44;;;;;;;2.63;0.20;;;15.30;93.50;;;;;;4993784;28;20027;-75
2021/09/29 14:33:58;;;;;;;4.47;0.10;;;14.40;91.00;;;;;;4991427;28;20458;-75
2021/09/29 14:36:24;;;;;;;2.30;0.13;;;14.50;91.00;;;;;;4976695;28;20048;-75
2021/09/29 14:38:49;;;;;;;3.47;0.20;;;14.60;90.50;;;;;;4985666;28;20387;-75
2021/09/29 14:41:15;;;;;;;4.00;0.10;;;14.70;90.50;;;;;;4995198;28;20026;-76
2021/09/29 14:43:41;;;;;;;3.05;0.20;;;14.70;89.90;;;;;;5005887;28;20041;-75
2021/09/29 14:46:07;;;;;;;4.10;0.20;;;14.60;90.10;;;;;;4997115;28;20025;-77
2021/09/29 14:48:33;;;;;;;2.17;0.20;;;14.50;90.30;;;;;;4996521;28;20035;-74
2021/09/29 14:50:59;;;;;;;2.53;0.10;;;14.40;90.70;;;;;;4992556;28;20030;-75
2021/09/29 14:53:25;;;;;;;2.20;0.20;;;14.50;90.90;;;;;;4994816;28;20049;-75
2021/09/29 14:55:50;;;;;;;2.10;0.10;;;14.60;91.00;;;;;;4994544;28;20031;-76
2021/09/29 14:58:16;;;;;;;4.07;0.22;;;14.70;91.00;;;;;;4992123;28;20037;-76
2021/09/29 15:00:42;;;;;;;1.73;0.10;;;14.60;91.00;;;;;;4995021;28;20025;-76
2021/09/29 15:03:09;;;;;;;4.75;0.17;;;14.50;91.10;;;;;;4994837;28;20053;-76
2021/09/29 15:05:35;;;;;;;1.88;0.15;;;14.50;91.30;;;;;;4987049;28;20069;-76
2021/09/29 15:08:01;;;;;;;3.25;0.30;;;14.40;91.30;;;;;;4975526;28;20066;-76
2021/09/29 15:10:27;;;;;;;2.42;0.10;;;14.20;91.50;;;;;;4980430;28;20061;-76
2021/09/29 15:12:52;;;;;;;2.78;0.30;;;14.10;91.80;;;;;;4985161;28;20031;-75
2021/09/29 15:15:26;;;;;;;2.45;0.20;;;14.00;92.00;;;;;;4990634;28;20084;-76
2021/09/29 15:17:57;;;;;;;4.18;0.20;;;13.90;92.20;;;;;;4994029;28;20033;-76
2021/09/29 15:23:10;;;;;;;3.08;0.17;;;13.70;92.40;;;;;;4985630;28;20027;-76
2021/09/29 15:28:38;;;;;;;2.97;0.35;;;13.60;92.80;;;;;;4987207;28;20042;-76
2021/09/29 15:31:22;;;;;;;3.17;0.20;;;13.70;93.00;;;;;;4985051;28;20035;-76
2021/09/29 15:50:21;;;;;;;2.22;0.20;;;13.90;92.80;;;;;;4990898;28;20077;-77
2021/09/29 15:55:44;;;;;;;2.40;0.10;;;14.00;92.20;;;;;;4979968;28;20046;-74
2021/09/29 15:58:20;;;;;;;0.80;0.10;;;13.90;92.20;;;;;;4984809;28;20118;-75
2021/09/29 16:05:52;;;;;;;3.03;0.10;;;13.60;92.10;;;;;;4993990;28;20045;-74
2021/09/29 16:08:36;;;;;;;3.67;0.30;;;13.60;92.20;;;;;;4982978;28;20410;-74
2021/09/29 16:16:20;;;;;;;2.25;0.10;;;13.50;92.60;;;;;;4990675;28;20117;-75
2021/09/29 16:32:23;;;;;;;1.02;0.10;;;13.30;91.60;;;;;;4984052;28;20073;-75